Aviation Digital Data Service (ADDS)

Output produced by METARs form (1747 UTC 24 June 2019)
found at http://www.aviationweather.gov/metar/data/
 
METAR text: EHAM 241725Z 19005KT 150V250 CAVOK 30/19 Q1017 NOSIG
Conditions at: EHAM (AMSTERDAM/SCHIPH, NL) observed 1725 UTC 24 June 2019
Temperature: 30.0°C (86°F)
Dewpoint: 19.0°C (66°F) [RH = 52%]
Pressure (altimeter): 30.03 inches Hg (1017.0 mb)
Winds: from the S (190 degrees) at 6 MPH (5 knots; 2.6 m/s)
Visibility: 6 or more miles (10+ km)
Ceiling: ceiling and visibility are OK
Clouds: unknown
Weather: no significant weather observed at this time

METAR text: EHAM 241655Z 17004KT 130V250 CAVOK 29/18 Q1017 BECMG 33006KT
Conditions at: EHAM (AMSTERDAM/SCHIPH, NL) observed 1655 UTC 24 June 2019
Temperature: 29.0°C (84°F)
Dewpoint: 18.0°C (64°F) [RH = 52%]
Pressure (altimeter): 30.03 inches Hg (1017.0 mb)
Winds: from the S (170 degrees) at 5 MPH (4 knots; 2.1 m/s)
Visibility: 6 or more miles (10+ km)
Ceiling: ceiling and visibility are OK
Clouds: unknown
Weather: no significant weather observed at this time

METAR text: EHAM 241625Z 14005KT 100V170 CAVOK 30/18 Q1017 NOSIG
Conditions at: EHAM (AMSTERDAM/SCHIPH, NL) observed 1625 UTC 24 June 2019
Temperature: 30.0°C (86°F)
Dewpoint: 18.0°C (64°F) [RH = 49%]
Pressure (altimeter): 30.03 inches Hg (1017.0 mb)
Winds: from the SE (140 degrees) at 6 MPH (5 knots; 2.6 m/s)
Visibility: 6 or more miles (10+ km)
Ceiling: ceiling and visibility are OK
Clouds: unknown
Weather: no significant weather observed at this time

METAR text: EHAM 241555Z 17007KT 120V230 CAVOK 30/17 Q1017 NOSIG
Conditions at: EHAM (AMSTERDAM/SCHIPH, NL) observed 1555 UTC 24 June 2019
Temperature: 30.0°C (86°F)
Dewpoint: 17.0°C (63°F) [RH = 46%]
Pressure (altimeter): 30.03 inches Hg (1017.0 mb)
Winds: from the S (170 degrees) at 8 MPH (7 knots; 3.6 m/s)
Visibility: 6 or more miles (10+ km)
Ceiling: ceiling and visibility are OK
Clouds: unknown
Weather: no significant weather observed at this time

METAR text: EHAM 241525Z 17007KT 130V220 CAVOK 30/18 Q1017 NOSIG
Conditions at: EHAM (AMSTERDAM/SCHIPH, NL) observed 1525 UTC 24 June 2019
Temperature: 30.0°C (86°F)
Dewpoint: 18.0°C (64°F) [RH = 49%]
Pressure (altimeter): 30.03 inches Hg (1017.0 mb)
Winds: from the S (170 degrees) at 8 MPH (7 knots; 3.6 m/s)
Visibility: 6 or more miles (10+ km)
Ceiling: ceiling and visibility are OK
Clouds: unknown
Weather: no significant weather observed at this time

METAR text: EHAM 241455Z 16007KT 120V230 CAVOK 30/18 Q1017 NOSIG
Conditions at: EHAM (AMSTERDAM/SCHIPH, NL) observed 1455 UTC 24 June 2019
Temperature: 30.0°C (86°F)
Dewpoint: 18.0°C (64°F) [RH = 49%]
Pressure (altimeter): 30.03 inches Hg (1017.0 mb)
Winds: from the SSE (160 degrees) at 8 MPH (7 knots; 3.6 m/s)
Visibility: 6 or more miles (10+ km)
Ceiling: ceiling and visibility are OK
Clouds: unknown
Weather: no significant weather observed at this time

METAR text: EHAM 241425Z 14011KT 110V180 CAVOK 30/19 Q1017 NOSIG
Conditions at: EHAM (AMSTERDAM/SCHIPH, NL) observed 1425 UTC 24 June 2019
Temperature: 30.0°C (86°F)
Dewpoint: 19.0°C (66°F) [RH = 52%]
Pressure (altimeter): 30.03 inches Hg (1017.0 mb)
Winds: from the SE (140 degrees) at 13 MPH (11 knots; 5.7 m/s)
Visibility: 6 or more miles (10+ km)
Ceiling: ceiling and visibility are OK
Clouds: unknown
Weather: no significant weather observed at this time

METAR text: EHAM 241355Z 15010KT 110V180 CAVOK 30/18 Q1017 NOSIG
Conditions at: EHAM (AMSTERDAM/SCHIPH, NL) observed 1355 UTC 24 June 2019
Temperature: 30.0°C (86°F)
Dewpoint: 18.0°C (64°F) [RH = 49%]
Pressure (altimeter): 30.03 inches Hg (1017.0 mb)
Winds: from the SSE (150 degrees) at 12 MPH (10 knots; 5.1 m/s)
Visibility: 6 or more miles (10+ km)
Ceiling: ceiling and visibility are OK
Clouds: unknown
Weather: no significant weather observed at this time

METAR text: EHAM 241325Z 16011KT 120V200 CAVOK 30/17 Q1017 NOSIG
Conditions at: EHAM (AMSTERDAM/SCHIPH, NL) observed 1325 UTC 24 June 2019
Temperature: 30.0°C (86°F)
Dewpoint: 17.0°C (63°F) [RH = 46%]
Pressure (altimeter): 30.03 inches Hg (1017.0 mb)
Winds: from the SSE (160 degrees) at 13 MPH (11 knots; 5.7 m/s)
Visibility: 6 or more miles (10+ km)
Ceiling: ceiling and visibility are OK
Clouds: unknown
Weather: no significant weather observed at this time

METAR text: EHAM 241255Z 16010KT 110V220 CAVOK 30/18 Q1017 NOSIG
Conditions at: EHAM (AMSTERDAM/SCHIPH, NL) observed 1255 UTC 24 June 2019
Temperature: 30.0°C (86°F)
Dewpoint: 18.0°C (64°F) [RH = 49%]
Pressure (altimeter): 30.03 inches Hg (1017.0 mb)
Winds: from the SSE (160 degrees) at 12 MPH (10 knots; 5.1 m/s)
Visibility: 6 or more miles (10+ km)
Ceiling: ceiling and visibility are OK
Clouds: unknown
Weather: no significant weather observed at this time

METAR text: EHAM 241225Z 15012KT 110V180 9999 FEW045 29/18 Q1017 NOSIG
Conditions at: EHAM (AMSTERDAM/SCHIPH, NL) observed 1225 UTC 24 June 2019
Temperature: 29.0°C (84°F)
Dewpoint: 18.0°C (64°F) [RH = 52%]
Pressure (altimeter): 30.03 inches Hg (1017.0 mb)
Winds: from the SSE (150 degrees) at 14 MPH (12 knots; 6.2 m/s)
Visibility: 6 or more miles (10+ km)
Ceiling: at least 12,000 feet AGL
Clouds: few clouds at 4500 feet AGL
Weather: no significant weather observed at this time

METAR text: EHAM 241155Z 13011KT 090V170 9999 FEW040 29/18 Q1017 NOSIG
Conditions at: EHAM (AMSTERDAM/SCHIPH, NL) observed 1155 UTC 24 June 2019
Temperature: 29.0°C (84°F)
Dewpoint: 18.0°C (64°F) [RH = 52%]
Pressure (altimeter): 30.03 inches Hg (1017.0 mb)
Winds: from the SE (130 degrees) at 13 MPH (11 knots; 5.7 m/s)
Visibility: 6 or more miles (10+ km)
Ceiling: at least 12,000 feet AGL
Clouds: few clouds at 4000 feet AGL
Weather: no significant weather observed at this time

METAR text: EHAM 241125Z 14010KT 100V170 9999 FEW040 29/19 Q1017 NOSIG
Conditions at: EHAM (AMSTERDAM/SCHIPH, NL) observed 1125 UTC 24 June 2019
Temperature: 29.0°C (84°F)
Dewpoint: 19.0°C (66°F) [RH = 55%]
Pressure (altimeter): 30.03 inches Hg (1017.0 mb)
Winds: from the SE (140 degrees) at 12 MPH (10 knots; 5.1 m/s)
Visibility: 6 or more miles (10+ km)
Ceiling: at least 12,000 feet AGL
Clouds: few clouds at 4000 feet AGL
Weather: no significant weather observed at this time

METAR text: EHAM 241055Z 15013KT 110V210 9999 FEW040 28/18 Q1017 NOSIG
Conditions at: EHAM (AMSTERDAM/SCHIPH, NL) observed 1055 UTC 24 June 2019
Temperature: 28.0°C (82°F)
Dewpoint: 18.0°C (64°F) [RH = 55%]
Pressure (altimeter): 30.03 inches Hg (1017.0 mb)
Winds: from the SSE (150 degrees) at 15 MPH (13 knots; 6.7 m/s)
Visibility: 6 or more miles (10+ km)
Ceiling: at least 12,000 feet AGL
Clouds: few clouds at 4000 feet AGL
Weather: no significant weather observed at this time

METAR text: EHAM 241025Z 15012KT 100V200 9999 FEW036 28/18 Q1017 NOSIG
Conditions at: EHAM (AMSTERDAM/SCHIPH, NL) observed 1025 UTC 24 June 2019
Temperature: 28.0°C (82°F)
Dewpoint: 18.0°C (64°F) [RH = 55%]
Pressure (altimeter): 30.03 inches Hg (1017.0 mb)
Winds: from the SSE (150 degrees) at 14 MPH (12 knots; 6.2 m/s)
Visibility: 6 or more miles (10+ km)
Ceiling: at least 12,000 feet AGL
Clouds: few clouds at 3600 feet AGL
Weather: no significant weather observed at this time

METAR text: EHAM 240955Z 15011KT 110V180 CAVOK 27/19 Q1017 NOSIG
Conditions at: EHAM (AMSTERDAM/SCHIPH, NL) observed 0955 UTC 24 June 2019
Temperature: 27.0°C (81°F)
Dewpoint: 19.0°C (66°F) [RH = 62%]
Pressure (altimeter): 30.03 inches Hg (1017.0 mb)
Winds: from the SSE (150 degrees) at 13 MPH (11 knots; 5.7 m/s)
Visibility: 6 or more miles (10+ km)
Ceiling: ceiling and visibility are OK
Clouds: unknown
Weather: no significant weather observed at this time

METAR text: EHAM 240925Z 16010KT 110V190 CAVOK 27/18 Q1017 NOSIG
Conditions at: EHAM (AMSTERDAM/SCHIPH, NL) observed 0925 UTC 24 June 2019
Temperature: 27.0°C (81°F)
Dewpoint: 18.0°C (64°F) [RH = 58%]
Pressure (altimeter): 30.03 inches Hg (1017.0 mb)
Winds: from the SSE (160 degrees) at 12 MPH (10 knots; 5.1 m/s)
Visibility: 6 or more miles (10+ km)
Ceiling: ceiling and visibility are OK
Clouds: unknown
Weather: no significant weather observed at this time

METAR text: EHAM 240855Z 15011KT 110V190 CAVOK 27/18 Q1017 NOSIG
Conditions at: EHAM (AMSTERDAM/SCHIPH, NL) observed 0855 UTC 24 June 2019
Temperature: 27.0°C (81°F)
Dewpoint: 18.0°C (64°F) [RH = 58%]
Pressure (altimeter): 30.03 inches Hg (1017.0 mb)
Winds: from the SSE (150 degrees) at 13 MPH (11 knots; 5.7 m/s)
Visibility: 6 or more miles (10+ km)
Ceiling: ceiling and visibility are OK
Clouds: unknown
Weather: no significant weather observed at this time

METAR text: EHAM 240825Z 14010KT 110V180 CAVOK 26/18 Q1017 NOSIG
Conditions at: EHAM (AMSTERDAM/SCHIPH, NL) observed 0825 UTC 24 June 2019
Temperature: 26.0°C (79°F)
Dewpoint: 18.0°C (64°F) [RH = 61%]
Pressure (altimeter): 30.03 inches Hg (1017.0 mb)
Winds: from the SE (140 degrees) at 12 MPH (10 knots; 5.1 m/s)
Visibility: 6 or more miles (10+ km)
Ceiling: ceiling and visibility are OK
Clouds: unknown
Weather: no significant weather observed at this time

METAR text: EHAM 240755Z 13010KT 100V170 CAVOK 25/17 Q1017 NOSIG
Conditions at: EHAM (AMSTERDAM/SCHIPH, NL) observed 0755 UTC 24 June 2019
Temperature: 25.0°C (77°F)
Dewpoint: 17.0°C (63°F) [RH = 61%]
Pressure (altimeter): 30.03 inches Hg (1017.0 mb)
Winds: from the SE (130 degrees) at 12 MPH (10 knots; 5.1 m/s)
Visibility: 6 or more miles (10+ km)
Ceiling: ceiling and visibility are OK
Clouds: unknown
Weather: no significant weather observed at this time

METAR text: EHAM 240725Z 13011KT 080V160 CAVOK 25/17 Q1017 NOSIG
Conditions at: EHAM (AMSTERDAM/SCHIPH, NL) observed 0725 UTC 24 June 2019
Temperature: 25.0°C (77°F)
Dewpoint: 17.0°C (63°F) [RH = 61%]
Pressure (altimeter): 30.03 inches Hg (1017.0 mb)
Winds: from the SE (130 degrees) at 13 MPH (11 knots; 5.7 m/s)
Visibility: 6 or more miles (10+ km)
Ceiling: ceiling and visibility are OK
Clouds: unknown
Weather: no significant weather observed at this time

METAR text: EHAM 240655Z 12011KT 090V150 CAVOK 24/16 Q1017 NOSIG
Conditions at: EHAM (AMSTERDAM/SCHIPH, NL) observed 0655 UTC 24 June 2019
Temperature: 24.0°C (75°F)
Dewpoint: 16.0°C (61°F) [RH = 61%]
Pressure (altimeter): 30.03 inches Hg (1017.0 mb)
Winds: from the ESE (120 degrees) at 13 MPH (11 knots; 5.7 m/s)
Visibility: 6 or more miles (10+ km)
Ceiling: ceiling and visibility are OK
Clouds: unknown
Weather: no significant weather observed at this time

METAR text: EHAM 240625Z 13009KT 100V160 CAVOK 22/15 Q1017 NOSIG
Conditions at: EHAM (AMSTERDAM/SCHIPH, NL) observed 0625 UTC 24 June 2019
Temperature: 22.0°C (72°F)
Dewpoint: 15.0°C (59°F) [RH = 65%]
Pressure (altimeter): 30.03 inches Hg (1017.0 mb)
Winds: from the SE (130 degrees) at 10 MPH (9 knots; 4.6 m/s)
Visibility: 6 or more miles (10+ km)
Ceiling: ceiling and visibility are OK
Clouds: unknown
Weather: no significant weather observed at this time

METAR text: EHAM 240555Z 12008KT CAVOK 22/15 Q1017 NOSIG
Conditions at: EHAM (AMSTERDAM/SCHIPH, NL) observed 0555 UTC 24 June 2019
Temperature: 22.0°C (72°F)
Dewpoint: 15.0°C (59°F) [RH = 65%]
Pressure (altimeter): 30.03 inches Hg (1017.0 mb)
Winds: from the ESE (120 degrees) at 9 MPH (8 knots; 4.1 m/s)
Visibility: 6 or more miles (10+ km)
Ceiling: ceiling and visibility are OK
Clouds: unknown
Weather: no significant weather observed at this time

METAR text: EHAM 240525Z 13009KT 080V150 CAVOK 21/14 Q1017 NOSIG
Conditions at: EHAM (AMSTERDAM/SCHIPH, NL) observed 0525 UTC 24 June 2019
Temperature: 21.0°C (70°F)
Dewpoint: 14.0°C (57°F) [RH = 64%]
Pressure (altimeter): 30.03 inches Hg (1017.0 mb)
Winds: from the SE (130 degrees) at 10 MPH (9 knots; 4.6 m/s)
Visibility: 6 or more miles (10+ km)
Ceiling: ceiling and visibility are OK
Clouds: unknown
Weather: no significant weather observed at this time

METAR text: EHAM 240455Z 12009KT CAVOK 21/13 Q1017 NOSIG
Conditions at: EHAM (AMSTERDAM/SCHIPH, NL) observed 0455 UTC 24 June 2019
Temperature: 21.0°C (70°F)
Dewpoint: 13.0°C (55°F) [RH = 60%]
Pressure (altimeter): 30.03 inches Hg (1017.0 mb)
Winds: from the ESE (120 degrees) at 10 MPH (9 knots; 4.6 m/s)
Visibility: 6 or more miles (10+ km)
Ceiling: ceiling and visibility are OK
Clouds: unknown
Weather: no significant weather observed at this time

METAR text: EHAM 240425Z 11009KT CAVOK 20/13 Q1017 NOSIG
Conditions at: EHAM (AMSTERDAM/SCHIPH, NL) observed 0425 UTC 24 June 2019
Temperature: 20.0°C (68°F)
Dewpoint: 13.0°C (55°F) [RH = 64%]
Pressure (altimeter): 30.03 inches Hg (1017.0 mb)
Winds: from the ESE (110 degrees) at 10 MPH (9 knots; 4.6 m/s)
Visibility: 6 or more miles (10+ km)
Ceiling: ceiling and visibility are OK
Clouds: unknown
Weather: no significant weather observed at this time

METAR text: EHAM 240355Z 11008KT CAVOK 20/12 Q1017 NOSIG
Conditions at: EHAM (AMSTERDAM/SCHIPH, NL) observed 0355 UTC 24 June 2019
Temperature: 20.0°C (68°F)
Dewpoint: 12.0°C (54°F) [RH = 60%]
Pressure (altimeter): 30.03 inches Hg (1017.0 mb)
Winds: from the ESE (110 degrees) at 9 MPH (8 knots; 4.1 m/s)
Visibility: 6 or more miles (10+ km)
Ceiling: ceiling and visibility are OK
Clouds: unknown
Weather: no significant weather observed at this time

METAR text: EHAM 240325Z 11009KT CAVOK 20/12 Q1017 NOSIG
Conditions at: EHAM (AMSTERDAM/SCHIPH, NL) observed 0325 UTC 24 June 2019
Temperature: 20.0°C (68°F)
Dewpoint: 12.0°C (54°F) [RH = 60%]
Pressure (altimeter): 30.03 inches Hg (1017.0 mb)
Winds: from the ESE (110 degrees) at 10 MPH (9 knots; 4.6 m/s)
Visibility: 6 or more miles (10+ km)
Ceiling: ceiling and visibility are OK
Clouds: unknown
Weather: no significant weather observed at this time

METAR text: EHAM 240255Z 11009KT CAVOK 21/12 Q1017 NOSIG
Conditions at: EHAM (AMSTERDAM/SCHIPH, NL) observed 0255 UTC 24 June 2019
Temperature: 21.0°C (70°F)
Dewpoint: 12.0°C (54°F) [RH = 56%]
Pressure (altimeter): 30.03 inches Hg (1017.0 mb)
Winds: from the ESE (110 degrees) at 10 MPH (9 knots; 4.6 m/s)
Visibility: 6 or more miles (10+ km)
Ceiling: ceiling and visibility are OK
Clouds: unknown
Weather: no significant weather observed at this time

METAR text: EHAM 240225Z 11010KT CAVOK 21/12 Q1017 NOSIG
Conditions at: EHAM (AMSTERDAM/SCHIPH, NL) observed 0225 UTC 24 June 2019
Temperature: 21.0°C (70°F)
Dewpoint: 12.0°C (54°F) [RH = 56%]
Pressure (altimeter): 30.03 inches Hg (1017.0 mb)
Winds: from the ESE (110 degrees) at 12 MPH (10 knots; 5.1 m/s)
Visibility: 6 or more miles (10+ km)
Ceiling: ceiling and visibility are OK
Clouds: unknown
Weather: no significant weather observed at this time

METAR text: EHAM 240155Z 11010KT CAVOK 22/12 Q1017 NOSIG
Conditions at: EHAM (AMSTERDAM/SCHIPH, NL) observed 0155 UTC 24 June 2019
Temperature: 22.0°C (72°F)
Dewpoint: 12.0°C (54°F) [RH = 53%]
Pressure (altimeter): 30.03 inches Hg (1017.0 mb)
Winds: from the ESE (110 degrees) at 12 MPH (10 knots; 5.1 m/s)
Visibility: 6 or more miles (10+ km)
Ceiling: ceiling and visibility are OK
Clouds: unknown
Weather: no significant weather observed at this time

METAR text: EHAM 240125Z 11010KT CAVOK 22/12 Q1017 NOSIG
Conditions at: EHAM (AMSTERDAM/SCHIPH, NL) observed 0125 UTC 24 June 2019
Temperature: 22.0°C (72°F)
Dewpoint: 12.0°C (54°F) [RH = 53%]
Pressure (altimeter): 30.03 inches Hg (1017.0 mb)
Winds: from the ESE (110 degrees) at 12 MPH (10 knots; 5.1 m/s)
Visibility: 6 or more miles (10+ km)
Ceiling: ceiling and visibility are OK
Clouds: unknown
Weather: no significant weather observed at this time

METAR text: EHAM 240055Z 10010KT CAVOK 22/12 Q1018 NOSIG
Conditions at: EHAM (AMSTERDAM/SCHIPH, NL) observed 0055 UTC 24 June 2019
Temperature: 22.0°C (72°F)
Dewpoint: 12.0°C (54°F) [RH = 53%]
Pressure (altimeter): 30.06 inches Hg (1018.0 mb)
Winds: from the E (100 degrees) at 12 MPH (10 knots; 5.1 m/s)
Visibility: 6 or more miles (10+ km)
Ceiling: ceiling and visibility are OK
Clouds: unknown
Weather: no significant weather observed at this time

METAR text: EHAM 240025Z 10010KT CAVOK 22/12 Q1018 NOSIG
Conditions at: EHAM (AMSTERDAM/SCHIPH, NL) observed 0025 UTC 24 June 2019
Temperature: 22.0°C (72°F)
Dewpoint: 12.0°C (54°F) [RH = 53%]
Pressure (altimeter): 30.06 inches Hg (1018.0 mb)
Winds: from the E (100 degrees) at 12 MPH (10 knots; 5.1 m/s)
Visibility: 6 or more miles (10+ km)
Ceiling: ceiling and visibility are OK
Clouds: unknown
Weather: no significant weather observed at this time

METAR text: EHAM 232355Z 10011KT CAVOK 22/12 Q1018 NOSIG
Conditions at: EHAM (AMSTERDAM/SCHIPH, NL) observed 2355 UTC 23 June 2019
Temperature: 22.0°C (72°F)
Dewpoint: 12.0°C (54°F) [RH = 53%]
Pressure (altimeter): 30.06 inches Hg (1018.0 mb)
Winds: from the E (100 degrees) at 13 MPH (11 knots; 5.7 m/s)
Visibility: 6 or more miles (10+ km)
Ceiling: ceiling and visibility are OK
Clouds: unknown
Weather: no significant weather observed at this time

METAR text: EHAM 232325Z 10011KT CAVOK 23/12 Q1018 NOSIG
Conditions at: EHAM (AMSTERDAM/SCHIPH, NL) observed 2325 UTC 23 June 2019
Temperature: 23.0°C (73°F)
Dewpoint: 12.0°C (54°F) [RH = 50%]
Pressure (altimeter): 30.06 inches Hg (1018.0 mb)
Winds: from the E (100 degrees) at 13 MPH (11 knots; 5.7 m/s)
Visibility: 6 or more miles (10+ km)
Ceiling: ceiling and visibility are OK
Clouds: unknown
Weather: no significant weather observed at this time

METAR text: EHAM 232255Z 10010KT 060V120 CAVOK 23/12 Q1017 NOSIG
Conditions at: EHAM (AMSTERDAM/SCHIPH, NL) observed 2255 UTC 23 June 2019
Temperature: 23.0°C (73°F)
Dewpoint: 12.0°C (54°F) [RH = 50%]
Pressure (altimeter): 30.03 inches Hg (1017.0 mb)
Winds: from the E (100 degrees) at 12 MPH (10 knots; 5.1 m/s)
Visibility: 6 or more miles (10+ km)
Ceiling: ceiling and visibility are OK
Clouds: unknown
Weather: no significant weather observed at this time

METAR text: EHAM 232225Z 10010KT 070V130 CAVOK 24/12 Q1017 NOSIG
Conditions at: EHAM (AMSTERDAM/SCHIPH, NL) observed 2225 UTC 23 June 2019
Temperature: 24.0°C (75°F)
Dewpoint: 12.0°C (54°F) [RH = 47%]
Pressure (altimeter): 30.03 inches Hg (1017.0 mb)
Winds: from the E (100 degrees) at 12 MPH (10 knots; 5.1 m/s)
Visibility: 6 or more miles (10+ km)
Ceiling: ceiling and visibility are OK
Clouds: unknown
Weather: no significant weather observed at this time

METAR text: EHAM 232155Z 10009KT 080V140 CAVOK 24/12 Q1017 NOSIG
Conditions at: EHAM (AMSTERDAM/SCHIPH, NL) observed 2155 UTC 23 June 2019
Temperature: 24.0°C (75°F)
Dewpoint: 12.0°C (54°F) [RH = 47%]
Pressure (altimeter): 30.03 inches Hg (1017.0 mb)
Winds: from the E (100 degrees) at 10 MPH (9 knots; 4.6 m/s)
Visibility: 6 or more miles (10+ km)
Ceiling: ceiling and visibility are OK
Clouds: unknown
Weather: no significant weather observed at this time

METAR text: EHAM 232125Z 10008KT CAVOK 24/13 Q1017 NOSIG
Conditions at: EHAM (AMSTERDAM/SCHIPH, NL) observed 2125 UTC 23 June 2019
Temperature: 24.0°C (75°F)
Dewpoint: 13.0°C (55°F) [RH = 50%]
Pressure (altimeter): 30.03 inches Hg (1017.0 mb)
Winds: from the E (100 degrees) at 9 MPH (8 knots; 4.1 m/s)
Visibility: 6 or more miles (10+ km)
Ceiling: ceiling and visibility are OK
Clouds: unknown
Weather: no significant weather observed at this time

METAR text: EHAM 232055Z 10009KT 070V130 CAVOK 24/13 Q1017 NOSIG
Conditions at: EHAM (AMSTERDAM/SCHIPH, NL) observed 2055 UTC 23 June 2019
Temperature: 24.0°C (75°F)
Dewpoint: 13.0°C (55°F) [RH = 50%]
Pressure (altimeter): 30.03 inches Hg (1017.0 mb)
Winds: from the E (100 degrees) at 10 MPH (9 knots; 4.6 m/s)
Visibility: 6 or more miles (10+ km)
Ceiling: ceiling and visibility are OK
Clouds: unknown
Weather: no significant weather observed at this time

METAR text: EHAM 232025Z 08008KT CAVOK 24/13 Q1017 NOSIG
Conditions at: EHAM (AMSTERDAM/SCHIPH, NL) observed 2025 UTC 23 June 2019
Temperature: 24.0°C (75°F)
Dewpoint: 13.0°C (55°F) [RH = 50%]
Pressure (altimeter): 30.03 inches Hg (1017.0 mb)
Winds: from the E (80 degrees) at 9 MPH (8 knots; 4.1 m/s)
Visibility: 6 or more miles (10+ km)
Ceiling: ceiling and visibility are OK
Clouds: unknown
Weather: no significant weather observed at this time

METAR text: EHAM 231955Z 10008KT CAVOK 25/14 Q1017 NOSIG
Conditions at: EHAM (AMSTERDAM/SCHIPH, NL) observed 1955 UTC 23 June 2019
Temperature: 25.0°C (77°F)
Dewpoint: 14.0°C (57°F) [RH = 50%]
Pressure (altimeter): 30.03 inches Hg (1017.0 mb)
Winds: from the E (100 degrees) at 9 MPH (8 knots; 4.1 m/s)
Visibility: 6 or more miles (10+ km)
Ceiling: ceiling and visibility are OK
Clouds: unknown
Weather: no significant weather observed at this time

METAR text: EHAM 231925Z 09007KT CAVOK 25/15 Q1016 NOSIG
Conditions at: EHAM (AMSTERDAM/SCHIPH, NL) observed 1925 UTC 23 June 2019
Temperature: 25.0°C (77°F)
Dewpoint: 15.0°C (59°F) [RH = 54%]
Pressure (altimeter): 30.00 inches Hg (1016.0 mb)
Winds: from the E (90 degrees) at 8 MPH (7 knots; 3.6 m/s)
Visibility: 6 or more miles (10+ km)
Ceiling: ceiling and visibility are OK
Clouds: unknown
Weather: no significant weather observed at this time

METAR text: EHAM 231855Z 08006KT CAVOK 24/17 Q1016 NOSIG
Conditions at: EHAM (AMSTERDAM/SCHIPH, NL) observed 1855 UTC 23 June 2019
Temperature: 24.0°C (75°F)
Dewpoint: 17.0°C (63°F) [RH = 65%]
Pressure (altimeter): 30.00 inches Hg (1016.0 mb)
Winds: from the E (80 degrees) at 7 MPH (6 knots; 3.1 m/s)
Visibility: 6 or more miles (10+ km)
Ceiling: ceiling and visibility are OK
Clouds: unknown
Weather: no significant weather observed at this time

METAR text: EHAM 231825Z 10006KT 050V140 CAVOK 26/17 Q1016 NOSIG
Conditions at: EHAM (AMSTERDAM/SCHIPH, NL) observed 1825 UTC 23 June 2019
Temperature: 26.0°C (79°F)
Dewpoint: 17.0°C (63°F) [RH = 58%]
Pressure (altimeter): 30.00 inches Hg (1016.0 mb)
Winds: from the E (100 degrees) at 7 MPH (6 knots; 3.1 m/s)
Visibility: 6 or more miles (10+ km)
Ceiling: ceiling and visibility are OK
Clouds: unknown
Weather: no significant weather observed at this time

METAR text: EHAM 231755Z 12007KT 090V150 CAVOK 26/16 Q1016 NOSIG
Conditions at: EHAM (AMSTERDAM/SCHIPH, NL) observed 1755 UTC 23 June 2019
Temperature: 26.0°C (79°F)
Dewpoint: 16.0°C (61°F) [RH = 54%]
Pressure (altimeter): 30.00 inches Hg (1016.0 mb)
Winds: from the ESE (120 degrees) at 8 MPH (7 knots; 3.6 m/s)
Visibility: 6 or more miles (10+ km)
Ceiling: ceiling and visibility are OK
Clouds: unknown
Weather: no significant weather observed at this time

METAR text: EHAM 231725Z 12007KT 090V150 CAVOK 27/16 Q1016 NOSIG
Conditions at: EHAM (AMSTERDAM/SCHIPH, NL) observed 1725 UTC 23 June 2019
Temperature: 27.0°C (81°F)
Dewpoint: 16.0°C (61°F) [RH = 51%]
Pressure (altimeter): 30.00 inches Hg (1016.0 mb)
Winds: from the ESE (120 degrees) at 8 MPH (7 knots; 3.6 m/s)
Visibility: 6 or more miles (10+ km)
Ceiling: ceiling and visibility are OK
Clouds: unknown
Weather: no significant weather observed at this time

METAR text: EHAM 231655Z 11006KT CAVOK 27/16 Q1016 NOSIG
Conditions at: EHAM (AMSTERDAM/SCHIPH, NL) observed 1655 UTC 23 June 2019
Temperature: 27.0°C (81°F)
Dewpoint: 16.0°C (61°F) [RH = 51%]
Pressure (altimeter): 30.00 inches Hg (1016.0 mb)
Winds: from the ESE (110 degrees) at 7 MPH (6 knots; 3.1 m/s)
Visibility: 6 or more miles (10+ km)
Ceiling: ceiling and visibility are OK
Clouds: unknown
Weather: no significant weather observed at this time

METAR text: EHAM 231625Z 09004KT 020V150 CAVOK 28/17 Q1017 NOSIG
Conditions at: EHAM (AMSTERDAM/SCHIPH, NL) observed 1625 UTC 23 June 2019
Temperature: 28.0°C (82°F)
Dewpoint: 17.0°C (63°F) [RH = 51%]
Pressure (altimeter): 30.03 inches Hg (1017.0 mb)
Winds: from the E (90 degrees) at 5 MPH (4 knots; 2.1 m/s)
Visibility: 6 or more miles (10+ km)
Ceiling: ceiling and visibility are OK
Clouds: unknown
Weather: no significant weather observed at this time

METAR text: EHAM 231555Z 09006KT 040V130 CAVOK 28/16 Q1017 NOSIG
Conditions at: EHAM (AMSTERDAM/SCHIPH, NL) observed 1555 UTC 23 June 2019
Temperature: 28.0°C (82°F)
Dewpoint: 16.0°C (61°F) [RH = 48%]
Pressure (altimeter): 30.03 inches Hg (1017.0 mb)
Winds: from the E (90 degrees) at 7 MPH (6 knots; 3.1 m/s)
Visibility: 6 or more miles (10+ km)
Ceiling: ceiling and visibility are OK
Clouds: unknown
Weather: no significant weather observed at this time

METAR text: EHAM 231525Z 05006KT 010V090 9999 FEW049 28/16 Q1017 NOSIG
Conditions at: EHAM (AMSTERDAM/SCHIPH, NL) observed 1525 UTC 23 June 2019
Temperature: 28.0°C (82°F)
Dewpoint: 16.0°C (61°F) [RH = 48%]
Pressure (altimeter): 30.03 inches Hg (1017.0 mb)
Winds: from the NE (50 degrees) at 7 MPH (6 knots; 3.1 m/s)
Visibility: 6 or more miles (10+ km)
Ceiling: at least 12,000 feet AGL
Clouds: few clouds at 4900 feet AGL
Weather: no significant weather observed at this time

METAR text: EHAM 231455Z 07008KT 020V100 9999 FEW049 28/18 Q1017 NOSIG
Conditions at: EHAM (AMSTERDAM/SCHIPH, NL) observed 1455 UTC 23 June 2019
Temperature: 28.0°C (82°F)
Dewpoint: 18.0°C (64°F) [RH = 55%]
Pressure (altimeter): 30.03 inches Hg (1017.0 mb)
Winds: from the ENE (70 degrees) at 9 MPH (8 knots; 4.1 m/s)
Visibility: 6 or more miles (10+ km)
Ceiling: at least 12,000 feet AGL
Clouds: few clouds at 4900 feet AGL
Weather: no significant weather observed at this time

METAR text: EHAM 231425Z 05009KT 360V120 9999 FEW045 27/17 Q1017 NOSIG
Conditions at: EHAM (AMSTERDAM/SCHIPH, NL) observed 1425 UTC 23 June 2019
Temperature: 27.0°C (81°F)
Dewpoint: 17.0°C (63°F) [RH = 54%]
Pressure (altimeter): 30.03 inches Hg (1017.0 mb)
Winds: from the NE (50 degrees) at 10 MPH (9 knots; 4.6 m/s)
Visibility: 6 or more miles (10+ km)
Ceiling: at least 12,000 feet AGL
Clouds: few clouds at 4500 feet AGL
Weather: no significant weather observed at this time

METAR text: EHAM 231355Z 05009KT 010V160 9999 FEW045 27/19 Q1017 NOSIG
Conditions at: EHAM (AMSTERDAM/SCHIPH, NL) observed 1355 UTC 23 June 2019
Temperature: 27.0°C (81°F)
Dewpoint: 19.0°C (66°F) [RH = 62%]
Pressure (altimeter): 30.03 inches Hg (1017.0 mb)
Winds: from the NE (50 degrees) at 10 MPH (9 knots; 4.6 m/s)
Visibility: 6 or more miles (10+ km)
Ceiling: at least 12,000 feet AGL
Clouds: few clouds at 4500 feet AGL
Weather: no significant weather observed at this time

METAR text: EHAM 231325Z 06010KT 010V130 9999 FEW045 27/18 Q1018 NOSIG
Conditions at: EHAM (AMSTERDAM/SCHIPH, NL) observed 1325 UTC 23 June 2019
Temperature: 27.0°C (81°F)
Dewpoint: 18.0°C (64°F) [RH = 58%]
Pressure (altimeter): 30.06 inches Hg (1018.0 mb)
Winds: from the ENE (60 degrees) at 12 MPH (10 knots; 5.1 m/s)
Visibility: 6 or more miles (10+ km)
Ceiling: at least 12,000 feet AGL
Clouds: few clouds at 4500 feet AGL
Weather: no significant weather observed at this time

METAR text: EHAM 231255Z 07009KT 340V120 9999 FEW035 26/18 Q1018 NOSIG
Conditions at: EHAM (AMSTERDAM/SCHIPH, NL) observed 1255 UTC 23 June 2019
Temperature: 26.0°C (79°F)
Dewpoint: 18.0°C (64°F) [RH = 61%]
Pressure (altimeter): 30.06 inches Hg (1018.0 mb)
Winds: from the ENE (70 degrees) at 10 MPH (9 knots; 4.6 m/s)
Visibility: 6 or more miles (10+ km)
Ceiling: at least 12,000 feet AGL
Clouds: few clouds at 3500 feet AGL
Weather: no significant weather observed at this time

METAR text: EHAM 231225Z 04007KT 360V070 CAVOK 26/18 Q1018 NOSIG
Conditions at: EHAM (AMSTERDAM/SCHIPH, NL) observed 1225 UTC 23 June 2019
Temperature: 26.0°C (79°F)
Dewpoint: 18.0°C (64°F) [RH = 61%]
Pressure (altimeter): 30.06 inches Hg (1018.0 mb)
Winds: from the NE (40 degrees) at 8 MPH (7 knots; 3.6 m/s)
Visibility: 6 or more miles (10+ km)
Ceiling: ceiling and visibility are OK
Clouds: unknown
Weather: no significant weather observed at this time

METAR text: EHAM 231155Z 06007KT 010V090 CAVOK 26/18 Q1018 NOSIG
Conditions at: EHAM (AMSTERDAM/SCHIPH, NL) observed 1155 UTC 23 June 2019
Temperature: 26.0°C (79°F)
Dewpoint: 18.0°C (64°F) [RH = 61%]
Pressure (altimeter): 30.06 inches Hg (1018.0 mb)
Winds: from the ENE (60 degrees) at 8 MPH (7 knots; 3.6 m/s)
Visibility: 6 or more miles (10+ km)
Ceiling: ceiling and visibility are OK
Clouds: unknown
Weather: no significant weather observed at this time

METAR text: EHAM 231125Z 08005KT 350V140 CAVOK 25/18 Q1018 NOSIG
Conditions at: EHAM (AMSTERDAM/SCHIPH, NL) observed 1125 UTC 23 June 2019
Temperature: 25.0°C (77°F)
Dewpoint: 18.0°C (64°F) [RH = 65%]
Pressure (altimeter): 30.06 inches Hg (1018.0 mb)
Winds: from the E (80 degrees) at 6 MPH (5 knots; 2.6 m/s)
Visibility: 6 or more miles (10+ km)
Ceiling: ceiling and visibility are OK
Clouds: unknown
Weather: no significant weather observed at this time

METAR text: EHAM 231055Z 07005KT 020V110 CAVOK 25/18 Q1018 NOSIG
Conditions at: EHAM (AMSTERDAM/SCHIPH, NL) observed 1055 UTC 23 June 2019
Temperature: 25.0°C (77°F)
Dewpoint: 18.0°C (64°F) [RH = 65%]
Pressure (altimeter): 30.06 inches Hg (1018.0 mb)
Winds: from the ENE (70 degrees) at 6 MPH (5 knots; 2.6 m/s)
Visibility: 6 or more miles (10+ km)
Ceiling: ceiling and visibility are OK
Clouds: unknown
Weather: no significant weather observed at this time

METAR text: EHAM 231025Z 06005KT 340V110 CAVOK 24/18 Q1019 NOSIG
Conditions at: EHAM (AMSTERDAM/SCHIPH, NL) observed 1025 UTC 23 June 2019
Temperature: 24.0°C (75°F)
Dewpoint: 18.0°C (64°F) [RH = 69%]
Pressure (altimeter): 30.09 inches Hg (1019.0 mb)
Winds: from the ENE (60 degrees) at 6 MPH (5 knots; 2.6 m/s)
Visibility: 6 or more miles (10+ km)
Ceiling: ceiling and visibility are OK
Clouds: unknown
Weather: no significant weather observed at this time

METAR text: EHAM 230955Z 09005KT 030V180 CAVOK 24/17 Q1019 NOSIG
Conditions at: EHAM (AMSTERDAM/SCHIPH, NL) observed 0955 UTC 23 June 2019
Temperature: 24.0°C (75°F)
Dewpoint: 17.0°C (63°F) [RH = 65%]
Pressure (altimeter): 30.09 inches Hg (1019.0 mb)
Winds: from the E (90 degrees) at 6 MPH (5 knots; 2.6 m/s)
Visibility: 6 or more miles (10+ km)
Ceiling: ceiling and visibility are OK
Clouds: unknown
Weather: no significant weather observed at this time

METAR text: EHAM 230925Z 07005KT 030V120 CAVOK 23/16 Q1019 NOSIG
Conditions at: EHAM (AMSTERDAM/SCHIPH, NL) observed 0925 UTC 23 June 2019
Temperature: 23.0°C (73°F)
Dewpoint: 16.0°C (61°F) [RH = 65%]
Pressure (altimeter): 30.09 inches Hg (1019.0 mb)
Winds: from the ENE (70 degrees) at 6 MPH (5 knots; 2.6 m/s)
Visibility: 6 or more miles (10+ km)
Ceiling: ceiling and visibility are OK
Clouds: unknown
Weather: no significant weather observed at this time

METAR text: EHAM 230855Z 09007KT 050V130 CAVOK 23/17 Q1019 NOSIG
Conditions at: EHAM (AMSTERDAM/SCHIPH, NL) observed 0855 UTC 23 June 2019
Temperature: 23.0°C (73°F)
Dewpoint: 17.0°C (63°F) [RH = 69%]
Pressure (altimeter): 30.09 inches Hg (1019.0 mb)
Winds: from the E (90 degrees) at 8 MPH (7 knots; 3.6 m/s)
Visibility: 6 or more miles (10+ km)
Ceiling: ceiling and visibility are OK
Clouds: unknown
Weather: no significant weather observed at this time

METAR text: EHAM 230825Z 08004KT 040V140 CAVOK 22/16 Q1019 NOSIG
Conditions at: EHAM (AMSTERDAM/SCHIPH, NL) observed 0825 UTC 23 June 2019
Temperature: 22.0°C (72°F)
Dewpoint: 16.0°C (61°F) [RH = 69%]
Pressure (altimeter): 30.09 inches Hg (1019.0 mb)
Winds: from the E (80 degrees) at 5 MPH (4 knots; 2.1 m/s)
Visibility: 6 or more miles (10+ km)
Ceiling: ceiling and visibility are OK
Clouds: unknown
Weather: no significant weather observed at this time

METAR text: EHAM 230755Z 07005KT 040V130 CAVOK 21/15 Q1019 NOSIG
Conditions at: EHAM (AMSTERDAM/SCHIPH, NL) observed 0755 UTC 23 June 2019
Temperature: 21.0°C (70°F)
Dewpoint: 15.0°C (59°F) [RH = 69%]
Pressure (altimeter): 30.09 inches Hg (1019.0 mb)
Winds: from the ENE (70 degrees) at 6 MPH (5 knots; 2.6 m/s)
Visibility: 6 or more miles (10+ km)
Ceiling: ceiling and visibility are OK
Clouds: unknown
Weather: no significant weather observed at this time

METAR text: EHAM 230725Z VRB05KT CAVOK 20/15 Q1019 NOSIG
Conditions at: EHAM (AMSTERDAM/SCHIPH, NL) observed 0725 UTC 23 June 2019
Temperature: 20.0°C (68°F)
Dewpoint: 15.0°C (59°F) [RH = 73%]
Pressure (altimeter): 30.09 inches Hg (1019.0 mb)
Winds: variable direction winds at 6 MPH (5 knots; 2.6 m/s)
Visibility: 6 or more miles (10+ km)
Ceiling: ceiling and visibility are OK
Clouds: unknown
Weather: no significant weather observed at this time

METAR text: EHAM 230655Z 09006KT 060V130 CAVOK 20/14 Q1019 NOSIG
Conditions at: EHAM (AMSTERDAM/SCHIPH, NL) observed 0655 UTC 23 June 2019
Temperature: 20.0°C (68°F)
Dewpoint: 14.0°C (57°F) [RH = 68%]
Pressure (altimeter): 30.09 inches Hg (1019.0 mb)
Winds: from the E (90 degrees) at 7 MPH (6 knots; 3.1 m/s)
Visibility: 6 or more miles (10+ km)
Ceiling: ceiling and visibility are OK
Clouds: unknown
Weather: no significant weather observed at this time

METAR text: EHAM 230625Z 08006KT 050V130 CAVOK 19/14 Q1019 NOSIG
Conditions at: EHAM (AMSTERDAM/SCHIPH, NL) observed 0625 UTC 23 June 2019
Temperature: 19.0°C (66°F)
Dewpoint: 14.0°C (57°F) [RH = 73%]
Pressure (altimeter): 30.09 inches Hg (1019.0 mb)
Winds: from the E (80 degrees) at 7 MPH (6 knots; 3.1 m/s)
Visibility: 6 or more miles (10+ km)
Ceiling: ceiling and visibility are OK
Clouds: unknown
Weather: no significant weather observed at this time

METAR text: EHAM 230555Z 07006KT 050V110 CAVOK 18/14 Q1019 NOSIG
Conditions at: EHAM (AMSTERDAM/SCHIPH, NL) observed 0555 UTC 23 June 2019
Temperature: 18.0°C (64°F)
Dewpoint: 14.0°C (57°F) [RH = 77%]
Pressure (altimeter): 30.09 inches Hg (1019.0 mb)
Winds: from the ENE (70 degrees) at 7 MPH (6 knots; 3.1 m/s)
Visibility: 6 or more miles (10+ km)
Ceiling: ceiling and visibility are OK
Clouds: unknown
Weather: no significant weather observed at this time

Forecast for: EHAM (AMSTERDAM/SCHIPH, NL)
Text: TAF EHAM 241700Z 2418/2524 34006KT CAVOK
Forecast period: 1800 UTC 24 June 2019 to 0300 UTC 25 June 2019
Forecast type: FROM: standard forecast or significant change
Winds: from the NNW (340 degrees) at 7 MPH (6 knots; 3.1 m/s)
Visibility: 6 or more miles 10+ km)
Ceiling: unknown
Clouds: missing
Weather: NSW  (no significant weather)
Text: BECMG 2503/2506 12007KT
Forecast period: 0300 to 0800 UTC 25 June 2019
Forecast type: BECOMING: Conditions expected to become as follows by 0600 UTC 25 June 2019
Winds: from the ESE (120 degrees) at 8 MPH (7 knots; 3.6 m/s)
Visibility: 6 or more miles 10+ km)
Ceiling: unknown
Clouds: missing
Weather: NSW  (no significant weather)
Text: BECMG 2508/2511 17008KT
Forecast period: 0800 to 1300 UTC 25 June 2019
Forecast type: BECOMING: Conditions expected to become as follows by 1100 UTC 25 June 2019
Winds: from the S (170 degrees) at 9 MPH (8 knots; 4.1 m/s)
Visibility: 6 or more miles 10+ km)
Ceiling: unknown
Clouds: missing
Weather: NSW  (no significant weather)
Text: BECMG 2513/2516 29010KT
Forecast period: 1300 UTC 25 June 2019 to 0000 UTC 26 June 2019
Forecast type: BECOMING: Conditions expected to become as follows by 1600 UTC 25 June 2019
Winds: from the WNW (290 degrees) at 12 MPH (10 knots; 5.1 m/s)
Visibility: 6 or more miles 10+ km)
Ceiling: unknown
Clouds: missing
Weather: NSW  (no significant weather)